Blooming Prairie, Minnesota
Current Conditions -  °F | °C
As of 11:34 AM on Friday 19 Dec 2014 (Local Time) from KTOB Reporting Station
Overcast Overcast  
Wind Chill: 17°   Ceiling: 2000
Heat Index: 27°   Visibility: 7mi
Dew Point: 25°   Wind: 9mph
Humidity: 93%   Direction: 180°S
Pressure: 30.22"   Gusts: NA
Location:  43.87°N, 93.05°W
Report Text: KTOB 191734Z AUTO 18008KT 7SM OVC020 M03/M04 A3022 RMK AO2
Loading
Personal Weather Stations






























Interactive Weather Map New forecast layout! Learn more

10-Day Weather Forecast

Advertisements
Track Severe Weather on mobile